Pagrindinis puslapis
METAR-TAF:

METAR-TAF

Oro uostai :

Bandar Lengeh, Iranas

platuma: 26-35N, ilguma: 054-50E, Aukštis: 14 m

Dabartinis oras

Ataskaita buvo paskelbta 18 minutes, ne 08:00 UTC
Vėjas 8 kt iš Pietų/Pietvakarių
Temperatūra 33°C
Drėgmė 56%
Slėgis 1001 hPa
Matomumas 10 km arba daugiau
nėra debesų žemiau 1500 m ir nėra kamuolinių lietaus debesų

METAR: OIBL 240800Z 20008KT CAVOK 33/23 Q1001

Laikas: 12:48 (08:18 UTC)


TAF: trūkstamas

Orai ataskaitas ir orų prognozės (METAR, TAF).

turimą stotys yra geltonos ir raudonos taškus žemėlapyje.

Perkelti pele per norėdami pamatyti stoties vardą.

Tada spustelėkite, norėdami matyti oro stebėjimo ir prognozės.

Norėdami pakeisti žemėlapį: spustelėkite ant žalios mygtukų su juodo kryžiaus žemyn,; žalią mygtuką su brūkšneliu, jei norite nutolinti; arba žalių rodyklių gretimoms žemėlapius.


METAR-TAF: